CMA CGM Pelleas — DFPH2 — position and weather

sailwx.info

Track history (hours):
 
Tides and Currents Weather Stations Pressure Air Temp Water Temp Dewpoint Dewpoint Depression Visibility Wind Speed Wind Dir Waves Ship Positions

CMA CGM Pelleas

Last reported at 2018-Jun-12 21:56 UTC. Time now 2018-Jun-21 02:44 UTC.
Position N 01°23' E 103°13'.
Warning: this ship's position is 8 days out of date.

Length 350 m; draft 12.9 m.

Type: Cargo ship. MMSI: 218846000.

Date/timePositionNaut miles runAvg speedWind from/ knotsBaromVisibWave heightAir tempDewpointWater temp
2018-Jun-12 21:56N 01°23' E 103°13'818.5
2018-Jun-12 21:30N 01°18' E 103°19'815.6
2018-Jun-12 21:00N 01°14' E 103°26'917.7
2018-Jun-12 20:30N 01°12' E 103°34'611.4
2018-Jun-12 20:00N 01°13' E 103°40'510.8
2018-Jun-12 19:30N 01°16' E 103°44'3 5.1
2018-Jun-12 19:00N 01°15' E 103°47'0 0.0
2018-Jun-12 18:30N 01°15' E 103°47'0 0.0
2018-Jun-12 17:59N 01°15' E 103°47'0 0.0
2018-Jun-12 17:30N 01°15' E 103°47'0 0.0
2018-Jun-12 16:59N 01°15' E 103°47'0 0.0
2018-Jun-12 15:59N 01°15' E 103°47'0 0.0
2018-Jun-12 15:29N 01°15' E 103°47'0 0.0
2018-Jun-12 15:00N 01°15' E 103°47'0 0.0
2018-Jun-12 14:27N 01°15' E 103°47'0 0.0
2018-Jun-12 14:00N 01°15' E 103°47'0 0.0
2018-Jun-12 13:30N 01°15' E 103°47'0 0.0
2018-Jun-12 12:57N 01°15' E 103°47'0 0.0
2018-Jun-12 12:30N 01°15' E 103°47'0 0.0
2018-Jun-12 11:57N 01°15' E 103°47'0 0.0
2018-Jun-12 11:30N 01°15' E 103°47'0 0.0
2018-Jun-12 11:00N 01°15' E 103°47'0 0.0
2018-Jun-12 10:30N 01°15' E 103°47'0 0.0
2018-Jun-12 10:00N 01°15' E 103°47'0 0.0
2018-Jun-12 09:29N 01°15' E 103°47'0 0.0
2018-Jun-12 08:59N 01°15' E 103°47'0 0.0
2018-Jun-12 08:29N 01°15' E 103°47'0 0.0
2018-Jun-12 07:56N 01°15' E 103°47'0 0.0
2018-Jun-12 07:29N 01°15' E 103°47'0 0.0
2018-Jun-12 07:00N 01°15' E 103°47'0 0.0
2018-Jun-12 06:27N 01°15' E 103°47'0 0.0
2018-Jun-12 05:59N 01°15' E 103°47'0 0.0
2018-Jun-12 05:30N 01°15' E 103°47'0 0.0
2018-Jun-12 05:00N 01°15' E 103°47'0 0.0
2018-Jun-12 04:30N 01°15' E 103°47'0 0.0
2018-Jun-12 03:59N 01°15' E 103°47'0 0.0
2018-Jun-12 03:27N 01°15' E 103°47'0 0.0
2018-Jun-12 03:00N 01°15' E 103°47'0 0.0
2018-Jun-12 02:30N 01°15' E 103°47'0 0.0
2018-Jun-12 01:57N 01°15' E 103°47'0 0.0
2018-Jun-12 01:27N 01°15' E 103°47'0 0.0
2018-Jun-12 01:00N 01°15' E 103°47'0 0.0
2018-Jun-12 00:30N 01°15' E 103°47'0 0.0
2018-Jun-12 00:00N 01°15' E 103°47'0 0.0
2018-Jun-11 23:30N 01°15' E 103°47'0 0.0
2018-Jun-11 23:00N 01°15' E 103°47'1 1.0
2018-Jun-11 22:30N 01°15' E 103°47'5 8.7
2018-Jun-11 21:59N 01°12' E 103°51'4 8.0
2018-Jun-11 21:31N 01°14' E 103°54'3 6.1
2018-Jun-11 21:00N 01°15' E 103°57'5 9.7
2018-Jun-11 20:30N 01°16' E 104°02'5 9.5
2018-Jun-11 20:00N 01°16' E 104°07'510.8
2018-Jun-11 19:31N 01°17' E 104°12'4 8.5
2018-Jun-11 19:00N 01°18' E 104°16'4 9.2
2018-Jun-11 18:30N 01°19' E 104°21'5 9.1
2018-Jun-11 17:59N 01°23' E 104°24'611.2
2018-Jun-11 17:29N 01°26' E 104°28'612.3
2018-Jun-11 17:00N 01°31' E 104°32'611.8
2018-Jun-11 16:29N 01°36' E 104°35'611.4
2018-Jun-11 15:56N 01°42' E 104°38'612.7
2018-Jun-11 15:28N 01°47' E 104°40'611.9
2018-Jun-11 14:57N 01°53' E 104°43'612.2
2018-Jun-11 14:29N 01°58' E 104°45'711.4
2018-Jun-11 13:53N 02°04' E 104°49'512.7
2018-Jun-11 13:28N 02°09' E 104°51'511.4
2018-Jun-11 12:59N 02°13' E 104°54'  
2018-Jun-06 20:06N 22°20' E 114°08'0 0.0
2018-Jun-06 19:45N 22°20' E 114°08'0 0.0
2018-Jun-06 18:09N 22°20' E 114°08'0 0.0
2018-Jun-06 17:57N 22°20' E 114°08'0 0.0
2018-Jun-06 15:03N 22°20' E 114°08'0 0.0
2018-Jun-06 14:57N 22°20' E 114°08'0 0.0
2018-Jun-06 14:15N 22°20' E 114°08'0 0.0
2018-Jun-06 13:45N 22°20' E 114°08'0 0.0
2018-Jun-06 13:09N 22°20' E 114°08'0 0.0
2018-Jun-06 04:45N 22°20' E 114°08'0 0.0
2018-Jun-06 04:21N 22°20' E 114°08'0 0.0
2018-Jun-06 01:21N 22°20' E 114°08'0 0.0
2018-Jun-06 00:09N 22°20' E 114°08'0 0.0
2018-Jun-05 23:57N 22°20' E 114°08'0 0.0
2018-Jun-05 23:29N 22°20' E 114°08'19214.1
2018-Jun-05 09:51N 23°02' E 117°30'717.9
2018-Jun-05 09:28N 23°06' E 117°36'817.9
2018-Jun-05 09:01N 23°10' E 117°44'918.1
2018-Jun-05 08:30N 23°15' E 117°52'918.0
2018-Jun-05 08:00N 23°21' E 118°00'1018.2
2018-Jun-05 07:29N 23°27' E 118°08'918.1
2018-Jun-05 07:00N 23°33' E 118°15'918.2
2018-Jun-05 06:30N 23°39' E 118°23'918.0
2018-Jun-05 05:59N 23°45' E 118°30'917.7
2018-Jun-05 05:30N 23°51' E 118°36'917.8
2018-Jun-05 05:00N 23°57' E 118°44'1017.9
2018-Jun-05 04:28N 24°03' E 118°52'918.0
2018-Jun-05 03:56N 24°10' E 118°59'918.0
2018-Jun-05 03:26N 24°16' E 119°06'1119.1
2018-Jun-05 02:51N 24°23' E 119°15'1318.7
2018-Jun-05 02:11N 24°32' E 119°26'  
Track history (hours):
 
Tides and Currents Weather Stations Pressure Air Temp Water Temp Dewpoint Dewpoint Depression Visibility Wind Speed Wind Dir Waves Ship Positions

CMA CGM Pelleas

Last reported at 2018-Jun-12 21:56 UTC. Time now 2018-Jun-21 02:44 UTC.
Position N 01°23' E 103°13'.
Warning: this ship's position is 8 days out of date.

Length 350 m; draft 12.9 m.

Type: Cargo ship. MMSI: 218846000.

Date/timePositionNaut miles runAvg speedWind from/ knotsBaromVisibWave heightAir tempDewpointWater temp
2018-Jun-12 21:56N 01°23' E 103°13'818.5
2018-Jun-12 21:30N 01°18' E 103°19'815.6
2018-Jun-12 21:00N 01°14' E 103°26'917.7
2018-Jun-12 20:30N 01°12' E 103°34'611.4
2018-Jun-12 20:00N 01°13' E 103°40'510.8
2018-Jun-12 19:30N 01°16' E 103°44'3 5.1
2018-Jun-12 19:00N 01°15' E 103°47'0 0.0
2018-Jun-12 18:30N 01°15' E 103°47'0 0.0
2018-Jun-12 17:59N 01°15' E 103°47'0 0.0
2018-Jun-12 17:30N 01°15' E 103°47'0 0.0
2018-Jun-12 16:59N 01°15' E 103°47'0 0.0
2018-Jun-12 15:59N 01°15' E 103°47'0 0.0
2018-Jun-12 15:29N 01°15' E 103°47'0 0.0
2018-Jun-12 15:00N 01°15' E 103°47'0 0.0
2018-Jun-12 14:27N 01°15' E 103°47'0 0.0
2018-Jun-12 14:00N 01°15' E 103°47'0 0.0
2018-Jun-12 13:30N 01°15' E 103°47'0 0.0
2018-Jun-12 12:57N 01°15' E 103°47'0 0.0
2018-Jun-12 12:30N 01°15' E 103°47'0 0.0
2018-Jun-12 11:57N 01°15' E 103°47'0 0.0
2018-Jun-12 11:30N 01°15' E 103°47'0 0.0
2018-Jun-12 11:00N 01°15' E 103°47'0 0.0
2018-Jun-12 10:30N 01°15' E 103°47'0 0.0
2018-Jun-12 10:00N 01°15' E 103°47'0 0.0
2018-Jun-12 09:29N 01°15' E 103°47'0 0.0
2018-Jun-12 08:59N 01°15' E 103°47'0 0.0
2018-Jun-12 08:29N 01°15' E 103°47'0 0.0
2018-Jun-12 07:56N 01°15' E 103°47'0 0.0
2018-Jun-12 07:29N 01°15' E 103°47'0 0.0
2018-Jun-12 07:00N 01°15' E 103°47'0 0.0
2018-Jun-12 06:27N 01°15' E 103°47'0 0.0
2018-Jun-12 05:59N 01°15' E 103°47'0 0.0
2018-Jun-12 05:30N 01°15' E 103°47'0 0.0
2018-Jun-12 05:00N 01°15' E 103°47'0 0.0
2018-Jun-12 04:30N 01°15' E 103°47'0 0.0
2018-Jun-12 03:59N 01°15' E 103°47'0 0.0
2018-Jun-12 03:27N 01°15' E 103°47'0 0.0
2018-Jun-12 03:00N 01°15' E 103°47'0 0.0
2018-Jun-12 02:30N 01°15' E 103°47'0 0.0
2018-Jun-12 01:57N 01°15' E 103°47'0 0.0
2018-Jun-12 01:27N 01°15' E 103°47'0 0.0
2018-Jun-12 01:00N 01°15' E 103°47'0 0.0
2018-Jun-12 00:30N 01°15' E 103°47'0 0.0
2018-Jun-12 00:00N 01°15' E 103°47'0 0.0
2018-Jun-11 23:30N 01°15' E 103°47'0 0.0
2018-Jun-11 23:00N 01°15' E 103°47'1 1.0
2018-Jun-11 22:30N 01°15' E 103°47'5 8.7
2018-Jun-11 21:59N 01°12' E 103°51'4 8.0
2018-Jun-11 21:31N 01°14' E 103°54'3 6.1
2018-Jun-11 21:00N 01°15' E 103°57'5 9.7
2018-Jun-11 20:30N 01°16' E 104°02'5 9.5
2018-Jun-11 20:00N 01°16' E 104°07'510.8
2018-Jun-11 19:31N 01°17' E 104°12'4 8.5
2018-Jun-11 19:00N 01°18' E 104°16'4 9.2
2018-Jun-11 18:30N 01°19' E 104°21'5 9.1
2018-Jun-11 17:59N 01°23' E 104°24'611.2
2018-Jun-11 17:29N 01°26' E 104°28'612.3
2018-Jun-11 17:00N 01°31' E 104°32'611.8
2018-Jun-11 16:29N 01°36' E 104°35'611.4
2018-Jun-11 15:56N 01°42' E 104°38'612.7
2018-Jun-11 15:28N 01°47' E 104°40'611.9
2018-Jun-11 14:57N 01°53' E 104°43'612.2
2018-Jun-11 14:29N 01°58' E 104°45'711.4
2018-Jun-11 13:53N 02°04' E 104°49'512.7
2018-Jun-11 13:28N 02°09' E 104°51'511.4
2018-Jun-11 12:59N 02°13' E 104°54'  
2018-Jun-06 20:06N 22°20' E 114°08'0 0.0
2018-Jun-06 19:45N 22°20' E 114°08'0 0.0
2018-Jun-06 18:09N 22°20' E 114°08'0 0.0
2018-Jun-06 17:57N 22°20' E 114°08'0 0.0
2018-Jun-06 15:03N 22°20' E 114°08'0 0.0
2018-Jun-06 14:57N 22°20' E 114°08'0 0.0
2018-Jun-06 14:15N 22°20' E 114°08'0 0.0
2018-Jun-06 13:45N 22°20' E 114°08'0 0.0
2018-Jun-06 13:09N 22°20' E 114°08'0 0.0
2018-Jun-06 04:45N 22°20' E 114°08'0 0.0
2018-Jun-06 04:21N 22°20' E 114°08'0 0.0
2018-Jun-06 01:21N 22°20' E 114°08'0 0.0
2018-Jun-06 00:09N 22°20' E 114°08'0 0.0
2018-Jun-05 23:57N 22°20' E 114°08'0 0.0
2018-Jun-05 23:29N 22°20' E 114°08'19214.1
2018-Jun-05 09:51N 23°02' E 117°30'717.9
2018-Jun-05 09:28N 23°06' E 117°36'817.9
2018-Jun-05 09:01N 23°10' E 117°44'918.1
2018-Jun-05 08:30N 23°15' E 117°52'918.0
2018-Jun-05 08:00N 23°21' E 118°00'1018.2
2018-Jun-05 07:29N 23°27' E 118°08'918.1
2018-Jun-05 07:00N 23°33' E 118°15'918.2
2018-Jun-05 06:30N 23°39' E 118°23'918.0
2018-Jun-05 05:59N 23°45' E 118°30'917.7
2018-Jun-05 05:30N 23°51' E 118°36'917.8
2018-Jun-05 05:00N 23°57' E 118°44'1017.9
2018-Jun-05 04:28N 24°03' E 118°52'918.0
2018-Jun-05 03:56N 24°10' E 118°59'918.0
2018-Jun-05 03:26N 24°16' E 119°06'1119.1
2018-Jun-05 02:51N 24°23' E 119°15'1318.7
2018-Jun-05 02:11N 24°32' E 119°26'  

Dump ship's entire track history